createdAt,value
2019-06-27T00:01:11.106Z,18.47
2019-06-27T00:03:41.609Z,17.87
2019-06-27T00:06:12.108Z,17.40
2019-06-27T00:08:42.610Z,17.53
2019-06-27T00:11:13.099Z,18.03
2019-06-27T00:13:43.613Z,18.20
2019-06-27T00:16:14.119Z,18.13
2019-06-27T00:18:44.599Z,18.73
2019-06-27T00:21:15.102Z,18.10
2019-06-27T00:23:45.649Z,16.13
2019-06-27T00:26:16.167Z,17.87
2019-06-27T00:28:46.660Z,16.47
2019-06-27T00:31:17.158Z,16.80
2019-06-27T00:33:47.631Z,17.33
2019-06-27T00:36:18.128Z,19.20
2019-06-27T00:38:48.621Z,16.10
2019-06-27T00:41:19.127Z,17.73
2019-06-27T00:43:49.646Z,18.10
2019-06-27T00:46:20.151Z,17.80
2019-06-27T00:48:50.654Z,18.53
2019-06-27T00:51:21.159Z,17.63
2019-06-27T00:53:51.631Z,18.40
2019-06-27T00:56:22.135Z,15.57
2019-06-27T00:58:52.613Z,17.50
2019-06-27T01:01:23.119Z,17.50
2019-06-27T01:03:53.617Z,16.73
2019-06-27T01:06:24.170Z,17.10
2019-06-27T01:08:54.671Z,17.57
2019-06-27T01:11:25.442Z,17.33
2019-06-27T01:13:55.945Z,18.20
2019-06-27T01:16:26.430Z,18.23
2019-06-27T01:18:56.933Z,18.50
2019-06-27T01:21:27.409Z,17.60
2019-06-27T01:23:57.918Z,18.23
2019-06-27T01:26:28.434Z,18.37
2019-06-27T01:28:58.943Z,17.70
2019-06-27T01:31:29.512Z,17.67
2019-06-27T01:34:00.007Z,17.30
2019-06-27T01:36:30.518Z,17.67
2019-06-27T01:39:01.137Z,18.10
2019-06-27T01:41:31.622Z,17.93
2019-06-27T01:44:02.115Z,17.30
2019-06-27T01:46:32.620Z,18.00
2019-06-27T01:49:03.103Z,19.27
2019-06-27T01:51:33.639Z,18.00
2019-06-27T01:54:04.616Z,18.47
2019-06-27T01:56:36.195Z,18.00
2019-06-27T01:59:06.679Z,18.00
2019-06-27T02:01:37.213Z,18.53
2019-06-27T02:04:07.693Z,17.27
2019-06-27T02:06:38.171Z,18.53
2019-06-27T02:09:08.679Z,18.10
2019-06-27T02:11:39.222Z,18.60
2019-06-27T02:14:09.737Z,17.47
2019-06-27T02:16:40.221Z,17.17
2019-06-27T02:19:10.833Z,17.80
2019-06-27T02:21:41.339Z,18.40
2019-06-27T02:24:11.819Z,18.80
2019-06-27T02:26:42.392Z,18.30
2019-06-27T02:29:12.879Z,18.20
2019-06-27T02:31:43.478Z,16.70
2019-06-27T02:34:14.289Z,18.50
2019-06-27T02:36:44.814Z,17.50
2019-06-27T02:39:15.262Z,18.67
2019-06-27T02:41:45.761Z,17.40
2019-06-27T02:44:16.294Z,17.50
2019-06-27T02:46:46.772Z,17.37
2019-06-27T02:49:17.295Z,17.03
2019-06-27T02:51:47.801Z,17.90
2019-06-27T02:54:18.305Z,18.60
2019-06-27T02:56:49.891Z,19.13
2019-06-27T02:59:20.382Z,18.93
2019-06-27T03:01:50.857Z,19.20
2019-06-27T03:04:21.365Z,16.53
2019-06-27T03:06:52.481Z,16.93
2019-06-27T03:09:23.678Z,17.83
2019-06-27T03:11:54.244Z,17.63
2019-06-27T03:14:24.762Z,17.20
2019-06-27T03:16:55.355Z,18.77
2019-06-27T03:19:25.863Z,17.20
2019-06-27T03:21:56.373Z,17.37
2019-06-27T03:24:26.913Z,17.60
2019-06-27T03:26:57.417Z,18.03
2019-06-27T03:29:27.927Z,17.07
2019-06-27T03:31:58.440Z,17.10
2019-06-27T03:34:28.899Z,17.63
2019-06-27T03:36:59.409Z,17.80
2019-06-27T03:39:29.980Z,17.60
2019-06-27T03:42:00.451Z,17.50
2019-06-27T03:44:30.979Z,16.50
2019-06-27T03:47:01.604Z,18.60
2019-06-27T03:49:32.103Z,17.17
2019-06-27T03:52:02.619Z,18.30
2019-06-27T03:54:33.092Z,17.77
2019-06-27T03:57:03.781Z,17.10
2019-06-27T03:59:40.585Z,16.70
2019-06-27T04:02:11.213Z,17.17
2019-06-27T04:04:41.697Z,16.50
2019-06-27T04:07:12.216Z,18.70
2019-06-27T04:09:42.739Z,15.93
2019-06-27T04:12:13.314Z,17.40
2019-06-27T04:14:43.790Z,15.87
2019-06-27T04:17:14.328Z,16.63
2019-06-27T04:19:44.866Z,17.90
2019-06-27T04:22:17.598Z,17.97
2019-06-27T04:24:47.559Z,21.57
2019-06-27T04:27:18.131Z,72.50
2019-06-27T04:29:48.616Z,60.77
2019-06-27T04:32:19.204Z,143.63
2019-06-27T04:34:49.697Z,82.80
2019-06-27T04:37:20.198Z,112.80
2019-06-27T04:39:50.783Z,68.00
2019-06-27T04:42:21.262Z,51.93
2019-06-27T04:44:51.774Z,29.27
2019-06-27T04:47:22.249Z,23.07
2019-06-27T04:49:52.765Z,21.37
2019-06-27T04:54:38.931Z,23.77
2019-06-27T04:57:09.437Z,23.80
2019-06-27T04:59:52.725Z,23.63
2019-06-27T05:02:12.169Z,23.20
2019-06-27T05:04:42.665Z,23.20
2019-06-27T05:07:13.173Z,22.83
2019-06-27T05:09:43.745Z,23.17
2019-06-27T05:12:14.259Z,126.40
2019-06-27T05:14:44.762Z,35.47
2019-06-27T05:17:15.247Z,25.17
2019-06-27T05:19:45.792Z,24.87
2019-06-27T05:22:16.627Z,22.57
2019-06-27T05:24:47.124Z,23.80
2019-06-27T05:27:17.701Z,23.70
2019-06-27T05:29:48.245Z,23.30
2019-06-27T05:32:18.714Z,24.00
2019-06-27T05:34:49.214Z,23.00
2019-06-27T05:37:19.717Z,24.00
2019-06-27T05:39:52.141Z,26.70
2019-06-27T05:42:22.693Z,24.30
2019-06-27T05:44:54.797Z,22.13
2019-06-27T05:47:25.295Z,22.33
2019-06-27T05:49:55.768Z,22.10
2019-06-27T05:52:26.277Z,22.53
2019-06-27T05:54:56.748Z,21.77
2019-06-27T05:57:27.253Z,69.77
2019-06-27T05:59:57.740Z,64.67
2019-06-27T06:02:28.262Z,33.43
2019-06-27T06:04:58.812Z,25.30
2019-06-27T06:07:29.297Z,22.40
2019-06-27T06:09:59.769Z,22.40
2019-06-27T06:12:30.293Z,21.53
2019-06-27T06:15:00.803Z,22.87
2019-06-27T06:17:31.307Z,21.80
2019-06-27T06:20:01.921Z,21.37
2019-06-27T06:22:32.623Z,52.17
2019-06-27T06:25:03.238Z,48.53
2019-06-27T06:27:33.908Z,41.50
2019-06-27T06:30:05.855Z,30.23
2019-06-27T06:32:36.424Z,19.93
2019-06-27T06:35:10.143Z,22.23
2019-06-27T06:37:40.877Z,23.10
2019-06-27T06:40:13.790Z,29.80
2019-06-27T06:42:44.333Z,35.00
2019-06-27T06:45:15.839Z,26.83
2019-06-27T06:47:46.321Z,24.07
2019-06-27T06:50:17.075Z,24.03
2019-06-27T06:52:47.578Z,21.47
2019-06-27T06:55:18.122Z,55.13
2019-06-27T06:57:48.625Z,109.20
2019-06-27T07:00:19.736Z,51.23
2019-06-27T07:02:50.258Z,28.73
2019-06-27T07:05:21.202Z,24.83
2019-06-27T07:07:51.708Z,22.83
2019-06-27T07:10:22.477Z,22.07
2019-06-27T07:12:53.035Z,20.23
2019-06-27T07:15:23.546Z,21.83
2019-06-27T07:17:55.225Z,20.63
2019-06-27T07:20:25.700Z,23.70
2019-06-27T07:22:56.366Z,23.30
2019-06-27T07:25:26.860Z,24.20
2019-06-27T07:27:57.349Z,23.97
2019-06-27T07:30:27.839Z,23.73
2019-06-27T07:32:58.435Z,22.77
2019-06-27T07:35:29.076Z,22.37
2019-06-27T07:37:59.646Z,21.93
2019-06-27T07:40:30.263Z,20.80
2019-06-27T07:43:00.794Z,22.70
2019-06-27T07:45:31.433Z,22.50
2019-06-27T07:48:01.932Z,26.57
2019-06-27T07:50:32.541Z,23.30
2019-06-27T07:53:03.012Z,22.33
2019-06-27T07:55:33.525Z,22.57
2019-06-27T07:58:03.999Z,23.73
2019-06-27T08:00:34.590Z,22.80
2019-06-27T08:03:05.131Z,23.13
2019-06-27T08:05:35.659Z,22.30
2019-06-27T08:08:06.206Z,21.87
2019-06-27T08:10:36.775Z,22.00
2019-06-27T08:13:07.482Z,19.60
2019-06-27T08:15:37.994Z,19.77
2019-06-27T08:18:08.480Z,20.37
2019-06-27T08:20:38.973Z,20.73
2019-06-27T08:23:09.456Z,21.50
2019-06-27T08:25:39.991Z,21.70
2019-06-27T08:28:10.496Z,19.77
2019-06-27T08:30:40.974Z,18.97
2019-06-27T08:33:11.478Z,20.80
2019-06-27T08:35:41.975Z,20.90
2019-06-27T08:38:12.464Z,20.33
2019-06-27T08:40:42.979Z,20.00
2019-06-27T08:43:13.457Z,17.27
2019-06-27T08:45:43.971Z,18.77
2019-06-27T08:48:14.494Z,18.63
2019-06-27T08:50:46.526Z,19.00
2019-06-27T08:53:19.883Z,19.10
2019-06-27T08:55:50.378Z,19.77
2019-06-27T08:58:21.631Z,17.57
2019-06-27T09:00:53.240Z,18.80
2019-06-27T09:03:23.711Z,18.40
2019-06-27T09:05:54.209Z,17.93
2019-06-27T09:08:24.711Z,18.80
2019-06-27T09:10:55.328Z,19.53
2019-06-27T09:13:26.832Z,20.17
2019-06-27T09:15:57.299Z,20.80
2019-06-27T09:18:27.807Z,20.97
2019-06-27T09:20:58.297Z,18.50
2019-06-27T09:23:28.822Z,18.87
2019-06-27T09:25:59.306Z,18.33
2019-06-27T09:28:29.805Z,18.67
2019-06-27T09:31:00.306Z,18.90
2019-06-27T09:33:30.824Z,18.83
2019-06-27T09:36:01.362Z,18.07
2019-06-27T09:38:31.860Z,19.37
2019-06-27T09:41:02.355Z,19.00
2019-06-27T09:43:32.933Z,18.60
2019-06-27T09:46:03.682Z,18.37
2019-06-27T09:48:34.234Z,18.83
2019-06-27T09:51:04.817Z,25.00
2019-06-27T09:53:35.288Z,19.03
2019-06-27T09:56:05.858Z,17.13
2019-06-27T09:58:36.929Z,21.93
2019-06-27T10:01:07.545Z,17.73
2019-06-27T10:03:38.114Z,25.40
2019-06-27T10:06:08.722Z,28.23
2019-06-27T10:08:39.228Z,19.37
2019-06-27T10:11:09.823Z,18.43
2019-06-27T10:13:40.294Z,30.00
2019-06-27T10:16:10.799Z,29.97
2019-06-27T10:18:41.300Z,18.30
2019-06-27T10:21:11.952Z,18.03
2019-06-27T10:23:42.463Z,17.80
2019-06-27T10:26:12.930Z,25.57
2019-06-27T10:28:43.435Z,19.50
2019-06-27T10:31:13.916Z,19.10
2019-06-27T10:33:44.416Z,18.07
2019-06-27T10:36:16.335Z,19.00
2019-06-27T10:38:46.789Z,18.10
2019-06-27T10:41:18.061Z,31.03
2019-06-27T10:43:48.609Z,20.20
2019-06-27T10:46:19.101Z,18.90
2019-06-27T10:48:49.568Z,18.70
2019-06-27T10:51:20.309Z,18.80
2019-06-27T10:53:50.816Z,19.07
2019-06-27T10:56:21.351Z,17.70
2019-06-27T10:58:51.812Z,16.97
2019-06-27T11:01:22.405Z,18.33
2019-06-27T11:03:52.877Z,19.30
2019-06-27T11:06:23.412Z,18.37
2019-06-27T11:08:55.186Z,16.80
2019-06-27T11:11:25.686Z,19.47
2019-06-27T11:13:59.192Z,20.60
2019-06-27T11:16:28.669Z,16.13
2019-06-27T11:18:59.173Z,16.90
2019-06-27T11:21:29.653Z,16.70
2019-06-27T11:24:00.138Z,16.00
2019-06-27T11:26:30.638Z,17.97
2019-06-27T11:29:02.775Z,16.23
2019-06-27T11:31:33.330Z,22.00
2019-06-27T11:34:03.844Z,19.60
2019-06-27T11:36:34.383Z,16.17
2019-06-27T11:39:06.901Z,15.73
2019-06-27T11:41:37.477Z,15.43
2019-06-27T11:44:08.030Z,16.40
2019-06-27T11:46:38.538Z,16.20
2019-06-27T11:49:09.128Z,15.63
2019-06-27T11:51:39.637Z,15.00
2019-06-27T11:54:10.095Z,13.90
2019-06-27T11:56:40.601Z,15.33
2019-06-27T11:59:12.078Z,16.60
2019-06-27T12:02:03.478Z,15.60
2019-06-27T12:04:34.486Z,17.07
2019-06-27T12:07:09.484Z,16.77
2019-06-27T12:09:40.556Z,15.97
2019-06-27T12:12:11.116Z,15.03
2019-06-27T12:14:41.628Z,14.90
2019-06-27T12:17:12.213Z,16.20
2019-06-27T12:19:43.020Z,16.47
2019-06-27T12:22:13.529Z,15.20
2019-06-27T12:24:44.141Z,15.97
2019-06-27T12:27:14.758Z,15.50
2019-06-27T12:29:45.366Z,15.70
2019-06-27T12:32:15.826Z,13.23
2019-06-27T12:34:46.336Z,12.70
2019-06-27T12:37:16.821Z,12.90
2019-06-27T12:39:47.316Z,14.77
2019-06-27T12:42:32.127Z,14.10
2019-06-27T12:44:53.309Z,14.93
2019-06-27T12:47:23.798Z,14.43
2019-06-27T12:50:02.210Z,15.10
2019-06-27T12:52:26.510Z,16.40
2019-06-27T12:54:57.048Z,16.70
2019-06-27T12:57:27.549Z,17.40
2019-06-27T12:59:59.073Z,17.10
2019-06-27T13:02:29.566Z,17.10
2019-06-27T13:05:00.103Z,16.20
2019-06-27T13:07:33.919Z,17.40
2019-06-27T13:10:03.431Z,15.60
2019-06-27T13:12:34.093Z,16.23
2019-06-27T13:15:06.085Z,16.27
2019-06-27T13:17:36.586Z,17.23
2019-06-27T13:20:07.961Z,16.50
2019-06-27T13:22:38.475Z,16.50
2019-06-27T13:25:09.010Z,16.90
2019-06-27T13:27:39.511Z,16.70
2019-06-27T13:30:10.417Z,16.90
2019-06-27T13:32:41.517Z,16.57
2019-06-27T13:35:12.006Z,15.07
2019-06-27T13:37:42.487Z,15.00
2019-06-27T13:40:13.220Z,16.37
2019-06-27T13:42:43.780Z,16.47
2019-06-27T13:45:14.790Z,16.13
2019-06-27T13:47:45.407Z,15.87
2019-06-27T13:50:16.341Z,16.27
2019-06-27T13:52:46.878Z,14.60
2019-06-27T13:55:19.212Z,15.10
2019-06-27T13:57:49.731Z,16.70
2019-06-27T14:00:27.457Z,16.80
2019-06-27T14:02:57.977Z,16.13
2019-06-27T14:05:28.508Z,17.53
2019-06-27T14:07:58.994Z,16.60
2019-06-27T14:10:30.521Z,15.90
2019-06-27T14:13:01.037Z,16.87
2019-06-27T14:15:31.546Z,15.80
2019-06-27T14:18:02.085Z,16.20
2019-06-27T14:20:33.559Z,16.23
2019-06-27T14:23:04.029Z,16.60
2019-06-27T14:25:36.185Z,14.37
2019-06-27T14:28:06.819Z,15.30
2019-06-27T14:30:37.346Z,16.40
2019-06-27T14:33:08.583Z,15.10
2019-06-27T14:35:39.816Z,16.20
2019-06-27T14:38:10.311Z,14.80
2019-06-27T14:40:43.094Z,15.23
2019-06-27T14:43:15.462Z,14.80
2019-06-27T14:45:47.688Z,14.20
2019-06-27T14:48:18.246Z,14.57
2019-06-27T14:50:49.972Z,14.20
2019-06-27T14:53:20.510Z,13.00
2019-06-27T14:55:51.037Z,12.50
2019-06-27T14:58:21.756Z,13.03
2019-06-27T15:00:52.263Z,12.53
2019-06-27T15:03:24.268Z,11.83
2019-06-27T15:05:54.967Z,12.43
2019-06-27T15:08:25.510Z,11.60
2019-06-27T15:11:10.100Z,10.60
2019-06-27T15:13:40.617Z,11.97
2019-06-27T15:16:12.484Z,11.40
2019-06-27T15:18:44.812Z,11.33
2019-06-27T15:21:15.668Z,10.87
2019-06-27T15:23:46.144Z,9.83
2019-06-27T15:26:16.658Z,10.03
2019-06-27T15:28:47.144Z,10.10
2019-06-27T15:31:22.546Z,17.10
2019-06-27T15:33:53.095Z,9.60
2019-06-27T15:36:23.578Z,8.40
2019-06-27T15:38:55.705Z,9.30
2019-06-27T15:41:27.703Z,7.80
2019-06-27T15:43:58.186Z,7.50
2019-06-27T15:46:28.911Z,8.03
2019-06-27T15:48:59.407Z,6.80
2019-06-27T15:51:29.908Z,7.20
2019-06-27T15:54:00.467Z,6.60
2019-06-27T15:56:31.639Z,7.07
2019-06-27T15:59:04.021Z,6.13
2019-06-27T16:01:34.710Z,6.20
2019-06-27T16:04:05.359Z,6.07
2019-06-27T16:06:37.154Z,5.60
2019-06-27T16:09:08.693Z,6.00
2019-06-27T16:11:43.630Z,5.53
2019-06-27T16:14:15.690Z,5.60
2019-06-27T16:16:46.314Z,5.60
2019-06-27T16:19:16.803Z,5.30
2019-06-27T16:21:47.267Z,5.13
2019-06-27T16:24:17.861Z,5.53
2019-06-27T16:26:48.325Z,5.70
2019-06-27T16:29:20.030Z,5.93
2019-06-27T16:31:50.518Z,4.80
2019-06-27T16:34:20.995Z,4.40
2019-06-27T16:36:51.570Z,4.30
2019-06-27T16:39:22.065Z,4.77
2019-06-27T16:41:52.569Z,4.17
2019-06-27T16:44:23.048Z,3.97
2019-06-27T16:46:53.540Z,4.43
2019-06-27T16:49:24.010Z,4.37
2019-06-27T16:51:56.036Z,3.93
2019-06-27T16:54:26.526Z,4.23
2019-06-27T16:56:57.555Z,7.53
2019-06-27T16:59:28.607Z,3.60
2019-06-27T17:01:59.160Z,4.00
2019-06-27T17:04:30.318Z,3.27
2019-06-27T17:07:00.880Z,3.33
2019-06-27T17:09:32.997Z,3.30
2019-06-27T17:12:03.444Z,3.97
2019-06-27T17:14:38.922Z,3.47
2019-06-27T17:17:10.441Z,3.77
2019-06-27T17:19:40.905Z,3.53
2019-06-27T17:22:13.002Z,3.43
2019-06-27T17:24:43.495Z,3.53
2019-06-27T17:27:14.026Z,3.30
2019-06-27T17:29:44.564Z,3.70
2019-06-27T17:32:15.140Z,3.77
2019-06-27T17:34:45.610Z,3.20
2019-06-27T17:37:18.613Z,3.30
2019-06-27T17:39:48.365Z,2.90
2019-06-27T17:42:18.908Z,2.93
2019-06-27T17:44:49.490Z,3.10
2019-06-27T17:47:19.961Z,3.30
2019-06-27T17:49:50.485Z,3.20
2019-06-27T17:52:21.118Z,3.43
2019-06-27T17:54:51.570Z,3.13
2019-06-27T17:57:22.266Z,3.20
2019-06-27T17:59:52.770Z,2.97
2019-06-27T18:02:23.319Z,3.13
2019-06-27T18:04:58.541Z,2.80
2019-06-27T18:07:29.041Z,2.93
2019-06-27T18:09:59.936Z,2.77
2019-06-27T18:12:30.454Z,2.80
2019-06-27T18:15:01.076Z,3.30
2019-06-27T18:17:33.894Z,2.83
2019-06-27T18:20:03.870Z,2.77
2019-06-27T18:22:34.368Z,3.50
2019-06-27T18:25:06.244Z,3.17
2019-06-27T18:27:36.765Z,3.43
2019-06-27T18:30:11.445Z,2.97
2019-06-27T18:32:41.992Z,5.67
2019-06-27T18:35:13.684Z,9.57
2019-06-27T18:37:44.260Z,3.30
2019-06-27T18:40:16.025Z,2.73
2019-06-27T18:42:46.532Z,3.60
2019-06-27T18:45:18.238Z,2.90
2019-06-27T18:47:48.806Z,3.57
2019-06-27T18:50:19.437Z,3.20
2019-06-27T18:52:49.907Z,3.73
2019-06-27T18:55:20.471Z,3.67
2019-06-27T18:57:50.978Z,3.33
2019-06-27T19:00:21.539Z,3.40
2019-06-27T19:02:52.008Z,3.47
2019-06-27T19:05:22.495Z,3.10
2019-06-27T19:07:52.990Z,3.60
2019-06-27T19:10:23.629Z,3.80
2019-06-27T19:12:55.820Z,3.60
2019-06-27T19:15:26.275Z,3.47
2019-06-27T19:17:56.774Z,3.20
2019-06-27T19:20:29.873Z,3.20
2019-06-27T19:23:03.000Z,4.10
2019-06-27T19:25:38.059Z,4.10
2019-06-27T19:28:08.548Z,4.40
2019-06-27T19:30:39.213Z,8.47
2019-06-27T19:33:09.717Z,28.97
2019-06-27T19:35:40.187Z,7.20
2019-06-27T19:38:10.676Z,6.00
2019-06-27T19:40:41.140Z,4.70
2019-06-27T19:43:26.724Z,3.97
2019-06-27T19:45:44.483Z,4.77
2019-06-27T19:48:14.974Z,4.43
2019-06-27T19:50:45.498Z,3.43
2019-06-27T19:53:16.021Z,3.90
2019-06-27T19:55:46.708Z,3.67
2019-06-27T19:58:17.341Z,4.00
2019-06-27T20:00:47.829Z,3.50
2019-06-27T20:03:18.423Z,4.23
2019-06-27T20:05:48.942Z,4.83
2019-06-27T20:08:20.283Z,3.70
2019-06-27T20:10:51.028Z,4.37
2019-06-27T20:13:21.683Z,3.97
2019-06-27T20:15:52.292Z,4.60
2019-06-27T20:18:22.795Z,4.27
2019-06-27T20:20:53.252Z,4.10
2019-06-27T20:23:24.809Z,4.20
2019-06-27T20:25:55.378Z,4.27
2019-06-27T20:28:25.918Z,4.03
2019-06-27T20:30:56.440Z,3.93
2019-06-27T20:33:26.935Z,3.67
2019-06-27T20:35:57.415Z,3.93
2019-06-27T20:38:34.800Z,3.87
2019-06-27T20:41:00.224Z,4.10
2019-06-27T20:43:30.870Z,3.63
2019-06-27T20:46:01.344Z,3.70
2019-06-27T20:48:31.861Z,3.83
2019-06-27T20:51:02.316Z,4.37
2019-06-27T20:53:32.890Z,4.07
2019-06-27T20:56:03.394Z,4.30
2019-06-27T20:58:33.890Z,4.50
2019-06-27T21:01:04.616Z,4.30
2019-06-27T21:03:35.081Z,4.10
2019-06-27T21:06:05.576Z,3.80
2019-06-27T21:08:50.200Z,4.43
2019-06-27T21:11:09.777Z,3.70
2019-06-27T21:13:40.265Z,4.40
2019-06-27T21:16:10.832Z,3.90
2019-06-27T21:19:01.309Z,4.17
2019-06-27T21:21:31.805Z,4.63
2019-06-27T21:24:02.307Z,4.40
2019-06-27T21:26:32.991Z,4.40
2019-06-27T21:29:03.498Z,4.37
2019-06-27T21:31:33.983Z,4.20
2019-06-27T21:34:04.477Z,4.77
2019-06-27T21:36:34.946Z,4.87
2019-06-27T21:39:07.802Z,4.70
2019-06-27T21:41:39.163Z,4.30
2019-06-27T21:44:09.693Z,3.93
2019-06-27T21:46:40.174Z,4.43
2019-06-27T21:49:11.550Z,4.40
2019-06-27T21:51:42.202Z,5.00
2019-06-27T21:54:12.700Z,4.83
2019-06-27T21:56:43.178Z,4.40
2019-06-27T21:59:13.783Z,4.77
2019-06-27T22:01:44.390Z,4.60
2019-06-27T22:04:14.872Z,4.70
2019-06-27T22:06:45.348Z,4.50
2019-06-27T22:09:24.584Z,4.37
2019-06-27T22:11:48.169Z,4.97
2019-06-27T22:14:18.707Z,4.77
2019-06-27T22:16:49.177Z,4.97
2019-06-27T22:19:19.668Z,5.00
2019-06-27T22:21:50.197Z,4.83
2019-06-27T22:24:20.687Z,5.10
2019-06-27T22:26:51.267Z,5.87
2019-06-27T22:29:21.760Z,5.33
2019-06-27T22:31:52.258Z,4.70
2019-06-27T22:34:22.760Z,5.13
2019-06-27T22:36:54.940Z,4.90
2019-06-27T22:39:43.212Z,4.93
2019-06-27T22:42:32.914Z,4.70
2019-06-27T22:45:21.127Z,4.63
2019-06-27T22:48:09.161Z,5.80
2019-06-27T22:50:43.089Z,4.40
2019-06-27T22:53:15.225Z,4.70
2019-06-27T22:55:45.761Z,4.80
2019-06-27T22:58:16.254Z,4.50
2019-06-27T23:00:46.705Z,4.70
2019-06-27T23:03:17.208Z,5.67
2019-06-27T23:05:47.673Z,5.30
2019-06-27T23:08:18.166Z,4.97
2019-06-27T23:10:48.659Z,5.30
2019-06-27T23:13:19.154Z,5.17
2019-06-27T23:15:49.700Z,5.00
2019-06-27T23:18:20.184Z,4.93
2019-06-27T23:20:50.733Z,5.27
2019-06-27T23:23:21.240Z,5.57
2019-06-27T23:25:51.812Z,5.60
2019-06-27T23:28:22.424Z,5.00
2019-06-27T23:30:52.939Z,4.90
2019-06-27T23:33:23.391Z,5.23
2019-06-27T23:35:53.892Z,4.90
2019-06-27T23:38:24.390Z,4.90
2019-06-27T23:40:54.861Z,5.07
2019-06-27T23:43:25.351Z,5.87
2019-06-27T23:45:55.853Z,5.20
2019-06-27T23:48:26.315Z,5.40
2019-06-27T23:50:56.807Z,5.10
2019-06-27T23:53:27.266Z,4.90
2019-06-27T23:55:57.755Z,5.40
2019-06-27T23:58:28.242Z,5.03
